Time;durP1;ratioP1;P1;durP2;ratioP2;P2;SDS_P1;SDS_P2;PMS_P1;PMS_P2;Temp;Humidity;BMP_temperature;BMP_pressure;BME280_temperature;BME280_humidity;BME280_pressure;Samples;Min_cycle;Max_cycle;Signal;HPM_P1;HPM_P2
2022/12/17 13:06:41;;;;;;;34.30;21.35;;;0.80;99.90;;;;;;5034773;28;20040;-83
2022/12/17 13:09:22;;;;;;;28.45;17.33;;;0.80;99.90;;;;;;5034098;28;20478;-83
2022/12/17 13:12:03;;;;;;;32.78;20.50;;;0.80;99.90;;;;;;5034000;28;20025;-82
2022/12/17 13:14:50;;;;;;;40.72;24.35;;;0.70;99.90;;;;;;5034218;28;20044;-83
2022/12/17 13:17:15;;;;;;;31.70;19.13;;;0.70;99.90;;;;;;5034021;28;20053;-83
2022/12/17 13:19:46;;;;;;;43.17;25.20;;;0.80;99.90;;;;;;5034495;28;20033;-83
2022/12/17 13:22:14;;;;;;;31.45;20.55;;;0.80;99.90;;;;;;5034098;28;20025;-83
2022/12/17 13:24:42;;;;;;;32.20;19.95;;;0.90;99.90;;;;;;5033688;28;20548;-83
2022/12/17 13:27:27;;;;;;;45.17;26.30;;;0.80;99.90;;;;;;5033940;28;20029;-82
2022/12/17 13:29:52;;;;;;;34.20;20.52;;;0.80;99.90;;;;;;5033966;28;20033;-83
2022/12/17 13:32:30;;;;;;;31.92;20.27;;;0.90;99.90;;;;;;5033894;28;20024;-83
2022/12/17 13:35:33;;;;;;;33.55;20.08;;;1.00;99.90;;;;;;5033723;28;20033;-83
2022/12/17 13:38:11;;;;;;;36.90;21.77;;;1.10;99.90;;;;;;5033461;28;20053;-83
2022/12/17 13:41:05;;;;;;;30.42;19.20;;;1.00;99.90;;;;;;5033592;28;20551;-83
2022/12/17 13:43:37;;;;;;;37.92;22.10;;;1.00;99.90;;;;;;5033823;28;20022;-83
2022/12/17 13:46:03;;;;;;;41.50;24.30;;;1.10;99.90;;;;;;5033729;28;20071;-83
2022/12/17 13:48:29;;;;;;;34.88;20.70;;;1.10;99.90;;;;;;5033631;28;20033;-83
2022/12/17 13:51:03;;;;;;;32.53;19.55;;;1.10;99.90;;;;;;5033980;28;20029;-83
2022/12/17 13:53:32;;;;;;;46.70;26.90;;;1.10;99.90;;;;;;5033126;28;20056;-83
2022/12/17 13:55:59;;;;;;;86.80;42.03;;;1.10;99.90;;;;;;5033436;28;20045;-82
2022/12/17 13:58:31;;;;;;;188.18;76.60;;;1.10;99.90;;;;;;5033306;28;20120;-83
2022/12/17 14:01:10;;;;;;;178.23;74.10;;;1.10;99.90;;;;;;5033374;28;20032;-83
2022/12/17 14:03:37;;;;;;;112.88;53.15;;;1.00;99.90;;;;;;5033531;28;20078;-83
2022/12/17 14:06:08;;;;;;;35.78;20.33;;;1.10;99.90;;;;;;5015965;28;20030;-83
2022/12/17 14:08:34;;;;;;;59.90;30.35;;;1.10;99.90;;;;;;5033231;28;20394;-83
2022/12/17 14:13:47;;;;;;;32.78;18.80;;;1.00;99.90;;;;;;5033256;28;20421;-83
2022/12/17 14:16:17;;;;;;;35.47;20.95;;;1.00;99.90;;;;;;5033063;28;20056;-83
2022/12/17 14:18:50;;;;;;;33.00;19.75;;;1.10;99.90;;;;;;5033062;28;20367;-83
2022/12/17 14:21:16;;;;;;;42.85;24.58;;;1.10;99.90;;;;;;5032627;28;20032;-83
2022/12/17 14:23:43;;;;;;;48.25;27.05;;;1.20;99.90;;;;;;5032888;28;20429;-83
2022/12/17 14:26:10;;;;;;;39.33;20.88;;;0.90;99.90;;;;;;5032946;28;20498;-83
2022/12/17 14:28:45;;;;;;;36.42;21.40;;;1.10;99.90;;;;;;5032738;28;20072;-83
2022/12/17 14:31:13;;;;;;;37.97;23.75;;;1.10;99.90;;;;;;5032933;28;20069;-82
2022/12/17 14:33:40;;;;;;;32.88;21.00;;;1.10;99.90;;;;;;5032873;28;20057;-83
2022/12/17 14:36:19;;;;;;;29.55;19.27;;;1.70;99.90;;;;;;5032272;28;20021;-83
2022/12/17 14:38:54;;;;;;;31.02;19.90;;;1.20;99.90;;;;;;5032528;28;20049;-83
2022/12/17 14:44:05;;;;;;;35.60;22.95;;;1.30;99.90;;;;;;5033002;28;20036;-83
2022/12/17 14:46:32;;;;;;;33.97;19.95;;;1.30;99.90;;;;;;5032626;28;20101;-83
2022/12/17 14:49:00;;;;;;;54.97;33.55;;;1.30;99.90;;;;;;5031883;28;20029;-83
2022/12/17 14:51:33;;;;;;;37.72;22.67;;;1.30;99.90;;;;;;5032228;28;20036;-83
2022/12/17 14:54:25;;;;;;;33.63;20.00;;;1.40;99.90;;;;;;5032261;28;20048;-83
2022/12/17 14:56:53;;;;;;;32.13;20.17;;;1.30;99.90;;;;;;5028658;28;20121;-83
2022/12/17 14:59:35;;;;;;;32.55;20.20;;;1.30;99.90;;;;;;5032285;28;20030;-83
2022/12/17 15:02:22;;;;;;;30.38;19.40;;;1.20;99.90;;;;;;5032409;28;20029;-83
2022/12/17 15:04:49;;;;;;;36.47;22.60;;;1.20;99.90;;;;;;5031919;28;20517;-83
2022/12/17 15:07:27;;;;;;;33.15;21.05;;;1.30;99.90;;;;;;5032089;28;20029;-83
2022/12/17 15:09:54;;;;;;;34.28;22.15;;;1.50;99.90;;;;;;5032568;28;20097;-83
2022/12/17 15:12:21;;;;;;;37.00;22.13;;;1.40;99.90;;;;;;5032210;28;20024;-83
2022/12/17 15:14:47;;;;;;;34.20;21.55;;;1.50;99.90;;;;;;5032174;28;20039;-83
2022/12/17 15:17:14;;;;;;;33.67;20.55;;;1.60;99.90;;;;;;5032093;28;20053;-83
2022/12/17 15:19:40;;;;;;;35.08;20.95;;;1.50;99.90;;;;;;5031757;28;20065;-83
2022/12/17 15:22:08;;;;;;;33.55;19.77;;;1.60;99.90;;;;;;5032201;28;20107;-83
2022/12/17 15:24:33;;;;;;;32.20;19.80;;;1.50;99.90;;;;;;5031963;28;20022;-83
2022/12/17 15:26:59;;;;;;;30.88;19.92;;;1.50;99.90;;;;;;5031884;28;20083;-83
2022/12/17 15:29:25;;;;;;;36.28;23.25;;;1.40;99.90;;;;;;5032373;28;20028;-83
2022/12/17 15:31:50;;;;;;;34.40;21.42;;;1.30;99.90;;;;;;5031852;28;20037;-83
2022/12/17 15:34:16;;;;;;;42.47;26.20;;;1.30;99.90;;;;;;5031424;28;20059;-83
2022/12/17 15:36:42;;;;;;;32.95;20.77;;;1.30;99.90;;;;;;5031742;28;20028;-83
2022/12/17 15:39:08;;;;;;;35.17;21.15;;;1.80;99.90;;;;;;5031937;28;20076;-83
2022/12/17 15:44:17;;;;;;;33.20;20.92;;;1.50;99.90;;;;;;5031920;28;20556;-83
2022/12/17 15:46:43;;;;;;;36.10;21.13;;;1.40;99.90;;;;;;5032274;28;20014;-83
2022/12/17 15:49:08;;;;;;;38.63;24.33;;;1.30;99.90;;;;;;5031445;28;20052;-83
2022/12/17 15:51:34;;;;;;;37.75;23.52;;;1.30;99.90;;;;;;5031651;28;20063;-83
2022/12/17 15:54:00;;;;;;;38.22;23.58;;;1.30;99.90;;;;;;5031722;28;20501;-83
2022/12/17 15:56:27;;;;;;;39.90;24.65;;;1.40;99.90;;;;;;5031795;28;20026;-83
2022/12/17 15:58:56;;;;;;;37.63;22.90;;;1.30;99.90;;;;;;5031708;28;20052;-83
2022/12/17 16:01:22;;;;;;;43.38;27.20;;;1.30;99.90;;;;;;5033126;28;20030;-83
2022/12/17 16:03:47;;;;;;;53.55;34.22;;;1.30;99.90;;;;;;5035698;28;20029;-83
2022/12/17 16:06:13;;;;;;;41.72;22.98;;;1.30;99.90;;;;;;5035565;28;20573;-83
2022/12/17 16:08:39;;;;;;;37.03;22.38;;;1.30;99.90;;;;;;5035411;28;20109;-83
2022/12/17 16:11:08;;;;;;;37.88;22.13;;;1.30;99.90;;;;;;5036148;28;20559;-83
2022/12/17 16:13:34;;;;;;;35.38;21.90;;;1.20;99.90;;;;;;5035315;28;20042;-83
2022/12/17 16:15:59;;;;;;;35.55;21.17;;;1.10;99.90;;;;;;5035545;28;20049;-84
2022/12/17 16:18:25;;;;;;;40.45;22.55;;;0.70;99.90;;;;;;5035095;28;20132;-83
2022/12/17 16:20:51;;;;;;;36.70;22.17;;;1.20;99.90;;;;;;5035203;28;20025;-83
2022/12/17 16:23:16;;;;;;;35.42;20.25;;;1.10;99.90;;;;;;5035408;28;20033;-83
2022/12/17 16:25:42;;;;;;;37.90;22.25;;;1.00;99.90;;;;;;5035256;28;20029;-83
2022/12/17 16:28:08;;;;;;;38.08;20.95;;;1.10;99.90;;;;;;5035393;28;20064;-83
2022/12/17 16:30:33;;;;;;;37.55;22.55;;;1.00;99.90;;;;;;5035609;28;20427;-83
2022/12/17 16:32:59;;;;;;;35.78;21.38;;;1.10;99.90;;;;;;5034522;28;20112;-83
2022/12/17 16:35:27;;;;;;;32.67;20.33;;;1.10;99.90;;;;;;5035093;28;20091;-83
2022/12/17 16:37:53;;;;;;;37.38;22.65;;;1.10;99.90;;;;;;5035047;28;20029;-83
2022/12/17 16:40:19;;;;;;;37.47;22.17;;;0.90;99.90;;;;;;5035091;28;20100;-83
2022/12/17 16:42:45;;;;;;;36.03;23.35;;;1.10;99.90;;;;;;5035289;28;20107;-83
2022/12/17 16:45:10;;;;;;;36.75;22.25;;;1.10;99.90;;;;;;5034895;28;20084;-83
2022/12/17 16:47:36;;;;;;;41.78;25.08;;;1.10;99.90;;;;;;5034491;28;20021;-83
2022/12/17 16:50:02;;;;;;;38.67;24.90;;;1.10;99.90;;;;;;5034585;28;20034;-83
2022/12/17 16:52:27;;;;;;;41.10;24.85;;;1.20;99.90;;;;;;5034604;28;20026;-83
2022/12/17 16:54:53;;;;;;;35.10;21.77;;;1.10;99.90;;;;;;5034541;28;20397;-83
2022/12/17 16:57:19;;;;;;;33.22;20.35;;;1.00;99.90;;;;;;5034799;28;20017;-83
2022/12/17 16:59:44;;;;;;;37.83;23.40;;;1.00;99.90;;;;;;5034612;28;20479;-83
2022/12/17 17:02:12;;;;;;;37.95;22.00;;;0.90;99.90;;;;;;5034282;28;20031;-83
2022/12/17 17:04:38;;;;;;;40.55;24.63;;;1.00;99.90;;;;;;5034372;28;20028;-83
2022/12/17 17:07:04;;;;;;;36.88;25.13;;;1.00;99.90;;;;;;5034877;28;20029;-83
2022/12/17 17:09:29;;;;;;;35.65;21.42;;;1.10;99.90;;;;;;5034512;28;20033;-83
2022/12/17 17:11:57;;;;;;;35.90;22.08;;;1.40;99.90;;;;;;5033791;28;20036;-83
2022/12/17 17:14:24;;;;;;;32.97;19.77;;;1.50;99.90;;;;;;5034201;28;20448;-83
2022/12/17 17:16:50;;;;;;;35.08;21.25;;;1.10;99.90;;;;;;5032102;28;20124;-83
2022/12/17 17:19:17;;;;;;;36.85;22.23;;;1.20;99.90;;;;;;5034083;28;20040;-83
2022/12/17 17:21:49;;;;;;;36.55;22.23;;;1.10;99.90;;;;;;5034179;28;20022;-83
2022/12/17 17:24:18;;;;;;;35.45;21.95;;;1.20;99.90;;;;;;5033902;28;20036;-83
2022/12/17 17:26:43;;;;;;;32.72;21.00;;;1.00;99.90;;;;;;5034034;28;20110;-83
2022/12/17 17:29:09;;;;;;;34.25;20.42;;;1.10;99.90;;;;;;5033841;28;20049;-83
2022/12/17 17:31:36;;;;;;;47.80;28.73;;;1.00;99.90;;;;;;5033979;28;20037;-83
2022/12/17 17:34:13;;;;;;;35.33;21.85;;;1.10;99.90;;;;;;5033620;28;20041;-82
2022/12/17 17:36:39;;;;;;;37.30;20.50;;;1.10;99.90;;;;;;5033918;28;20021;-83
2022/12/17 17:39:06;;;;;;;39.25;21.58;;;1.20;99.90;;;;;;5033910;28;20029;-83
2022/12/17 17:41:33;;;;;;;36.20;21.58;;;1.20;99.90;;;;;;5034326;28;20030;-83
2022/12/17 17:44:09;;;;;;;37.78;22.92;;;1.30;99.90;;;;;;5033526;28;20343;-83
2022/12/17 17:46:35;;;;;;;41.22;23.00;;;1.20;99.90;;;;;;5033651;28;20083;-83
2022/12/17 17:49:03;;;;;;;39.53;23.63;;;1.20;99.90;;;;;;5033497;28;20356;-83
2022/12/17 17:51:34;;;;;;;39.90;23.45;;;1.10;99.90;;;;;;5033711;28;20033;-83
2022/12/17 17:54:01;;;;;;;47.70;30.50;;;1.20;99.90;;;;;;5033489;28;20033;-83
2022/12/17 17:56:29;;;;;;;55.55;35.53;;;1.20;99.90;;;;;;5033818;28;20018;-83
2022/12/17 17:59:03;;;;;;;47.17;28.67;;;1.20;99.90;;;;;;5033084;28;20075;-83
2022/12/17 18:01:31;;;;;;;42.85;22.90;;;1.20;99.90;;;;;;5033686;28;20033;-82
2022/12/17 18:03:59;;;;;;;39.67;22.13;;;1.20;99.90;;;;;;5033349;28;20033;-83
2022/12/17 18:06:25;;;;;;;37.75;21.40;;;1.20;99.90;;;;;;5033717;28;20417;-83
2022/12/17 18:08:51;;;;;;;40.88;22.95;;;1.20;99.90;;;;;;5033427;28;20040;-83
2022/12/17 18:11:19;;;;;;;45.45;25.60;;;1.00;99.90;;;;;;5033204;28;20032;-82
2022/12/17 18:13:54;;;;;;;39.05;24.15;;;1.20;99.90;;;;;;5032711;28;20026;-83
2022/12/17 18:16:42;;;;;;;44.67;24.33;;;1.30;99.90;;;;;;5032839;28;20045;-83
2022/12/17 18:19:16;;;;;;;51.90;27.88;;;1.20;99.90;;;;;;5033164;28;20071;-83
2022/12/17 18:21:43;;;;;;;43.20;24.80;;;1.30;99.90;;;;;;5033081;28;20039;-83
2022/12/17 18:24:17;;;;;;;40.80;23.77;;;1.30;99.90;;;;;;5032227;28;20033;-83
2022/12/17 18:26:44;;;;;;;46.20;25.23;;;1.30;99.90;;;;;;5033404;28;20029;-83
2022/12/17 18:29:13;;;;;;;44.28;25.33;;;1.10;99.90;;;;;;5032654;28;20029;-83
2022/12/17 18:31:39;;;;;;;47.08;26.92;;;1.20;99.90;;;;;;5032697;28;20053;-83
2022/12/17 18:34:06;;;;;;;41.65;24.08;;;1.20;99.90;;;;;;5032724;28;20084;-83
2022/12/17 18:36:37;;;;;;;44.63;24.48;;;1.30;99.90;;;;;;5032752;28;20078;-82
2022/12/17 18:39:14;;;;;;;47.53;25.08;;;1.10;99.90;;;;;;5032794;28;20029;-83
2022/12/17 18:44:27;;;;;;;59.95;32.60;;;1.10;99.90;;;;;;5032834;28;20032;-83
2022/12/17 18:46:53;;;;;;;46.13;24.15;;;1.10;99.90;;;;;;5032606;28;20026;-83
2022/12/17 18:49:20;;;;;;;50.33;28.45;;;1.10;99.90;;;;;;5032527;28;20034;-83
2022/12/17 18:51:48;;;;;;;41.17;24.00;;;1.10;99.90;;;;;;5032113;28;20025;-89
2022/12/17 18:54:17;;;;;;;44.90;23.67;;;1.10;99.90;;;;;;5029411;28;20033;-84
2022/12/17 18:56:43;;;;;;;44.92;24.20;;;0.90;99.90;;;;;;5016354;28;20022;-83
2022/12/17 18:59:12;;;;;;;47.33;25.40;;;0.90;99.90;;;;;;5031777;28;20029;-86
2022/12/17 19:01:38;;;;;;;54.92;30.40;;;0.80;99.90;;;;;;5032986;28;20429;-88
2022/12/17 19:04:09;;;;;;;45.47;26.95;;;0.70;99.90;;;;;;5014548;28;20036;-87
2022/12/17 19:06:37;;;;;;;48.97;25.10;;;0.70;99.90;;;;;;5014322;28;20033;-86
2022/12/17 19:09:04;;;;;;;49.67;26.85;;;1.30;99.90;;;;;;5009488;28;20486;-84
2022/12/17 19:11:29;;;;;;;49.17;27.58;;;0.70;99.90;;;;;;5031878;28;20029;-85
2022/12/17 19:13:55;;;;;;;48.28;25.92;;;0.60;99.90;;;;;;5032129;28;20049;-85
2022/12/17 19:16:23;;;;;;;206.90;143.55;;;0.60;99.90;;;;;;5031882;28;20451;-85
2022/12/17 19:18:55;;;;;;;88.25;57.72;;;0.60;99.90;;;;;;5032096;28;20057;-85
2022/12/17 19:21:22;;;;;;;63.28;38.42;;;0.60;99.90;;;;;;5014357;28;20071;-86
2022/12/17 19:23:49;;;;;;;63.40;39.50;;;0.70;99.90;;;;;;5031712;28;20032;-84
2022/12/17 19:26:17;;;;;;;46.53;26.00;;;0.70;99.90;;;;;;5031860;28;20021;-85
2022/12/17 19:28:46;;;;;;;62.70;37.08;;;0.60;99.90;;;;;;5031718;28;20021;-85
2022/12/17 19:31:12;;;;;;;63.90;36.10;;;0.70;99.90;;;;;;5032304;28;20022;-86
2022/12/17 19:33:38;;;;;;;73.68;58.55;;;0.70;99.90;;;;;;5031504;28;20037;-86
2022/12/17 19:36:07;;;;;;;62.08;39.47;;;0.70;99.90;;;;;;5031295;28;20061;-84
2022/12/17 19:38:33;;;;;;;42.00;23.67;;;0.70;99.90;;;;;;5026239;28;20029;-84
2022/12/17 19:41:04;;;;;;;47.58;24.95;;;0.70;99.90;;;;;;5035678;28;20033;-84
2022/12/17 19:43:29;;;;;;;44.70;25.20;;;0.80;99.90;;;;;;5019060;28;20032;-84
2022/12/17 19:46:18;;;;;;;45.13;24.45;;;0.80;99.90;;;;;;5025606;28;20100;-84
2022/12/17 19:48:45;;;;;;;55.92;28.33;;;0.90;99.90;;;;;;5037623;28;20029;-84
2022/12/17 19:51:13;;;;;;;61.88;30.60;;;0.80;99.90;;;;;;5034712;28;20033;-85
2022/12/17 19:53:40;;;;;;;95.05;49.38;;;0.90;99.90;;;;;;5023578;28;20037;-85
2022/12/17 19:56:12;;;;;;;58.95;32.63;;;0.90;99.90;;;;;;5025623;28;20517;-84
2022/12/17 19:58:39;;;;;;;54.08;30.73;;;0.90;99.90;;;;;;5032690;28;20041;-85
2022/12/17 20:01:14;;;;;;;58.22;32.78;;;1.00;99.90;;;;;;5037415;28;20079;-85
2022/12/17 20:03:40;;;;;;;63.38;36.33;;;0.70;99.90;;;;;;5018056;28;20529;-85
2022/12/17 20:06:07;;;;;;;86.63;44.75;;;0.80;99.90;;;;;;5000836;28;20060;-85
2022/12/17 20:08:33;;;;;;;48.55;26.38;;;0.80;99.90;;;;;;5024821;28;20053;-85
2022/12/17 20:11:01;;;;;;;51.95;28.27;;;0.80;99.90;;;;;;5037151;28;20064;-85
2022/12/17 20:13:27;;;;;;;58.72;32.72;;;0.80;99.90;;;;;;5038185;28;20037;-85
2022/12/17 20:16:03;;;;;;;61.15;34.35;;;0.80;99.90;;;;;;5035642;28;20441;-84
2022/12/17 20:18:31;;;;;;;70.97;37.50;;;0.90;99.90;;;;;;5038444;28;20080;-84
2022/12/17 20:21:04;;;;;;;57.50;33.05;;;1.40;99.90;;;;;;5037534;28;20071;-85
2022/12/17 20:23:30;;;;;;;70.15;37.42;;;0.90;99.90;;;;;;5036578;28;20371;-85
2022/12/17 20:26:08;;;;;;;67.63;40.72;;;0.90;99.90;;;;;;5018873;28;20022;-85
2022/12/17 20:28:34;;;;;;;52.10;28.60;;;1.30;99.90;;;;;;5025126;28;20486;-84
2022/12/17 20:31:02;;;;;;;55.85;30.38;;;1.00;99.90;;;;;;5037480;28;20083;-85
2022/12/17 20:33:28;;;;;;;49.45;27.55;;;1.00;99.90;;;;;;5037460;28;20486;-85
2022/12/17 20:35:54;;;;;;;55.15;31.50;;;1.00;99.90;;;;;;5038003;28;20067;-84
2022/12/17 20:38:19;;;;;;;51.72;28.73;;;0.90;99.90;;;;;;5049911;28;20037;-86
2022/12/17 20:40:45;;;;;;;45.33;26.13;;;1.00;99.90;;;;;;5050064;28;20022;-85
2022/12/17 20:43:11;;;;;;;42.22;24.58;;;0.70;99.90;;;;;;5037314;28;20018;-84
2022/12/17 20:45:37;;;;;;;135.90;57.08;;;0.70;99.90;;;;;;5037695;28;20367;-85
2022/12/17 20:48:02;;;;;;;51.72;30.33;;;0.50;99.90;;;;;;5034306;28;20144;-85
2022/12/17 20:50:28;;;;;;;65.32;33.75;;;0.60;99.90;;;;;;5028911;28;20101;-84
2022/12/17 20:52:57;;;;;;;160.18;68.20;;;0.50;99.90;;;;;;5027151;28;20048;-84
2022/12/17 20:55:22;;;;;;;62.88;31.67;;;0.40;99.90;;;;;;5034205;28;20014;-84
2022/12/17 20:57:48;;;;;;;49.33;27.92;;;0.30;99.90;;;;;;5033160;28;20572;-85
2022/12/17 21:00:17;;;;;;;55.67;30.88;;;0.30;99.90;;;;;;5032839;28;20025;-85
2022/12/17 21:02:43;;;;;;;48.80;28.55;;;0.40;99.90;;;;;;5034031;28;20033;-85
2022/12/17 21:05:09;;;;;;;47.38;27.58;;;0.30;99.90;;;;;;5033283;28;20485;-84
2022/12/17 21:07:35;;;;;;;61.53;33.85;;;0.30;99.90;;;;;;5033722;28;20057;-85
2022/12/17 21:10:00;;;;;;;53.30;28.58;;;0.40;99.90;;;;;;5034241;28;20060;-85
2022/12/17 21:13:27;;;;;;;65.75;34.67;;;0.30;99.90;;;;;;5033294;28;20033;-85
2022/12/17 21:15:11;;;;;;;68.70;35.55;;;0.40;99.90;;;;;;5032935;28;20051;-84
2022/12/17 21:17:37;;;;;;;65.20;31.38;;;0.40;99.90;;;;;;5033541;28;20565;-85
2022/12/17 21:20:03;;;;;;;58.08;31.30;;;0.40;99.90;;;;;;5015988;28;20022;-84
2022/12/17 21:22:28;;;;;;;51.78;28.85;;;0.20;99.90;;;;;;5033275;28;20037;-85
2022/12/17 21:24:54;;;;;;;69.00;35.80;;;0.20;99.90;;;;;;5033278;28;20037;-85
2022/12/17 21:27:21;;;;;;;58.40;31.75;;;0.70;99.90;;;;;;5018599;28;20030;-85
2022/12/17 21:29:46;;;;;;;48.33;27.02;;;0.30;99.90;;;;;;5017405;28;20044;-84
2022/12/17 21:32:12;;;;;;;47.97;27.40;;;0.80;99.90;;;;;;5026988;28;20026;-85
2022/12/17 21:34:38;;;;;;;50.63;28.05;;;0.40;99.90;;;;;;5015055;28;20033;-84
2022/12/17 21:37:04;;;;;;;44.85;24.42;;;0.40;99.90;;;;;;5013403;28;20026;-85
2022/12/17 21:39:30;;;;;;;43.28;25.88;;;0.40;99.90;;;;;;5014863;28;20022;-85
2022/12/17 21:44:39;;;;;;;46.50;25.20;;;0.50;99.90;;;;;;5024512;28;20024;-84
2022/12/17 21:47:05;;;;;;;44.63;26.88;;;0.40;99.90;;;;;;5018570;28;20456;-85
2022/12/17 21:49:31;;;;;;;45.22;26.08;;;0.30;99.90;;;;;;5032734;28;20087;-85
2022/12/17 21:51:58;;;;;;;47.60;26.42;;;0.30;99.90;;;;;;5032983;28;20473;-85
2022/12/17 21:54:23;;;;;;;53.45;30.95;;;0.30;99.90;;;;;;5029772;28;20456;-85
2022/12/17 21:56:49;;;;;;;72.22;42.67;;;0.50;99.90;;;;;;4997405;28;20034;-85
2022/12/17 21:59:15;;;;;;;64.45;37.17;;;0.40;99.90;;;;;;5023174;28;20030;-85
2022/12/17 22:01:40;;;;;;;65.68;37.83;;;0.20;99.90;;;;;;5013324;28;20057;-85
2022/12/17 22:04:06;;;;;;;63.00;37.58;;;0.90;99.90;;;;;;5013725;28;20033;-85
2022/12/17 22:06:37;;;;;;;52.30;31.83;;;0.30;99.90;;;;;;5012733;28;20022;-85
2022/12/17 22:09:04;;;;;;;52.58;28.70;;;0.30;99.90;;;;;;5013051;28;20046;-84
2022/12/17 22:11:29;;;;;;;69.20;38.97;;;0.40;99.90;;;;;;5022878;28;20028;-85
2022/12/17 22:14:02;;;;;;;51.63;29.58;;;0.40;99.90;;;;;;5033606;28;20033;-85
2022/12/17 22:16:53;;;;;;;48.97;27.42;;;0.90;99.90;;;;;;5032923;28;20045;-84
2022/12/17 22:19:22;;;;;;;55.05;31.42;;;0.50;99.90;;;;;;5027754;28;20042;-85
2022/12/17 22:21:49;;;;;;;56.60;31.83;;;0.50;99.90;;;;;;5031975;28;20401;-85
2022/12/17 22:24:17;;;;;;;51.00;30.33;;;0.50;99.90;;;;;;5022357;28;20018;-84
2022/12/17 22:26:43;;;;;;;59.63;33.85;;;0.40;99.90;;;;;;5013665;28;20026;-85
2022/12/17 22:29:09;;;;;;;59.85;32.58;;;0.40;99.90;;;;;;5030551;28;20032;-85
2022/12/17 22:34:19;;;;;;;54.30;29.65;;;0.80;99.90;;;;;;5032367;28;20519;-85
2022/12/17 22:36:44;;;;;;;53.70;30.85;;;0.30;99.90;;;;;;5032792;28;20025;-85
2022/12/17 22:39:13;;;;;;;58.42;31.23;;;0.10;99.90;;;;;;5032815;28;20156;-84
2022/12/17 22:44:24;;;;;;;140.32;56.70;;;0.20;99.90;;;;;;5013099;28;20040;-85
2022/12/17 22:46:50;;;;;;;159.82;67.20;;;0.70;99.90;;;;;;5012970;28;20033;-85
2022/12/17 22:49:16;;;;;;;101.18;49.28;;;0.10;99.90;;;;;;5012578;28;20022;-84
2022/12/17 22:51:43;;;;;;;66.18;35.35;;;0.10;99.90;;;;;;5012782;28;20026;-85
2022/12/17 22:54:10;;;;;;;60.15;31.88;;;0.10;99.90;;;;;;5012845;28;20038;-85
2022/12/17 22:56:37;;;;;;;58.92;31.13;;;0.10;99.90;;;;;;5012854;28;20021;-85
2022/12/17 22:59:04;;;;;;;57.63;30.65;;;0.20;99.90;;;;;;5012850;28;20120;-85
2022/12/17 23:01:30;;;;;;;64.88;32.67;;;0.20;99.90;;;;;;5012800;28;20529;-85
2022/12/17 23:03:58;;;;;;;62.78;32.35;;;0.40;99.90;;;;;;5012255;28;20213;-85
2022/12/17 23:06:24;;;;;;;86.95;46.47;;;0.30;99.90;;;;;;5012948;28;20049;-85
2022/12/17 23:08:50;;;;;;;97.95;53.95;;;0.30;99.90;;;;;;5012546;28;20025;-85
2022/12/17 23:11:18;;;;;;;71.07;41.92;;;0.30;99.90;;;;;;4994582;28;20032;-84
2022/12/17 23:13:44;;;;;;;58.05;32.13;;;0.40;99.90;;;;;;4994824;28;20096;-84
2022/12/17 23:16:12;;;;;;;60.67;31.30;;;0.60;99.90;;;;;;5015957;28;20030;-85
2022/12/17 23:18:38;;;;;;;59.58;33.03;;;0.40;99.90;;;;;;5032222;28;20513;-85
2022/12/17 23:21:09;;;;;;;60.78;32.60;;;0.30;99.90;;;;;;5031518;28;20482;-85
2022/12/17 23:23:35;;;;;;;63.72;32.65;;;0.30;99.90;;;;;;5024912;28;20034;-85
2022/12/17 23:26:09;;;;;;;61.45;31.08;;;0.30;99.90;;;;;;5019113;28;20032;-85
2022/12/17 23:28:35;;;;;;;66.07;31.75;;;0.30;99.90;;;;;;5031719;28;20037;-85
2022/12/17 23:31:12;;;;;;;62.35;31.10;;;0.40;99.90;;;;;;5032024;28;20021;-85
2022/12/17 23:33:39;;;;;;;57.85;30.42;;;0.40;99.90;;;;;;5019469;28;20057;-84
2022/12/17 23:36:07;;;;;;;61.75;31.23;;;0.30;99.90;;;;;;5014068;28;20021;-84
2022/12/17 23:38:33;;;;;;;58.47;29.45;;;0.30;99.90;;;;;;5031832;28;20475;-84
2022/12/17 23:41:11;;;;;;;61.30;31.23;;;0.20;99.90;;;;;;5032021;28;20092;-84
2022/12/17 23:43:37;;;;;;;58.08;31.10;;;0.30;99.90;;;;;;5031756;28;20084;-84
2022/12/17 23:46:04;;;;;;;64.80;32.13;;;0.20;99.90;;;;;;5031911;28;20029;-84
2022/12/17 23:48:31;;;;;;;56.53;30.77;;;0.20;99.90;;;;;;5013906;28;20033;-85
2022/12/17 23:50:57;;;;;;;60.97;30.70;;;0.30;99.90;;;;;;5031595;28;20022;-85
2022/12/17 23:53:24;;;;;;;65.63;32.28;;;0.30;99.90;;;;;;5031846;28;20132;-85
2022/12/17 23:55:50;;;;;;;61.13;33.22;;;0.30;99.90;;;;;;5031962;28;20485;-85
2022/12/17 23:58:15;;;;;;;60.70;30.77;;;0.50;99.90;;;;;;5031147;28;20084;-85
